Time;durP1;ratioP1;P1;durP2;ratioP2;P2;SDS_P1;SDS_P2;PMS_P1;PMS_P2;Temp;Humidity;BMP_temperature;BMP_pressure;BME280_temperature;BME280_humidity;BME280_pressure;Samples;Min_cycle;Max_cycle;Signal;HPM_P1;HPM_P2
2021/01/15 00:04:05;;;;;;;32.60;15.80;;;;;;;-0.23;85.48;100894.75;5046942;57;1140321;-90
2021/01/15 00:09:12;;;;;;;46.87;21.13;;;;;;;-0.19;85.36;100913.27;5027983;57;1140953;-90
2021/01/15 00:14:17;;;;;;;39.10;17.33;;;;;;;-0.18;85.21;100910.22;5032288;57;1140829;-90
2021/01/15 00:19:23;;;;;;;36.47;15.97;;;;;;;-0.21;85.30;100911.60;5025860;57;1141402;-90
2021/01/15 00:24:28;;;;;;;36.97;17.67;;;;;;;-0.17;85.31;100910.63;5029478;57;1140465;-90
2021/01/15 00:29:34;;;;;;;42.78;18.98;;;;;;;-0.17;85.14;100915.83;5032840;57;1140454;-90
2021/01/15 00:34:40;;;;;;;39.70;17.07;;;;;;;-0.16;85.47;100914.49;5041226;58;1140509;-90
2021/01/15 00:39:45;;;;;;;41.55;21.05;;;;;;;-0.08;85.45;100916.87;5044413;57;1140347;-90
2021/01/15 00:44:55;;;;;;;45.03;20.73;;;;;;;-0.09;85.06;100921.66;4999202;57;1140566;-89
2021/01/15 00:49:59;;;;;;;47.00;23.20;;;;;;;-0.12;84.99;100925.19;5043844;57;1140452;-89
2021/01/15 00:55:07;;;;;;;65.50;25.30;;;;;;;-0.09;85.21;100930.31;5031837;57;1140457;-89
2021/01/15 01:00:14;;;;;;;66.13;27.00;;;;;;;-0.13;84.97;100937.78;4983856;57;1140856;-89
2021/01/15 01:05:27;;;;;;;56.57;20.47;;;;;;;-0.14;85.19;100943.02;4960903;57;1140432;-90
2021/01/15 01:10:33;;;;;;;57.27;22.87;;;;;;;-0.08;85.19;100941.12;4928831;58;1140897;-89
2021/01/15 01:15:38;;;;;;;45.00;20.77;;;;;;;-0.09;85.00;100944.61;4976989;57;1140779;-90
2021/01/15 01:20:44;;;;;;;50.27;22.47;;;;;;;-0.10;85.23;100936.41;4954534;57;1141403;-90
2021/01/15 01:25:49;;;;;;;65.53;26.87;;;;;;;0.03;85.19;100939.96;4980256;57;1140593;-89
2021/01/15 01:30:55;;;;;;;74.75;28.15;;;;;;;0.07;85.42;100942.45;4972109;57;1138455;-89
2021/01/15 01:36:00;;;;;;;63.77;22.87;;;;;;;0.10;85.35;100948.87;4954621;57;1138513;-90
2021/01/15 01:41:06;;;;;;;46.53;17.73;;;;;;;0.07;84.86;100945.05;5006342;58;1138244;-89
2021/01/15 01:46:14;;;;;;;41.37;18.17;;;;;;;0.05;84.85;100957.23;4914065;58;1138252;-89
2021/01/15 01:51:20;;;;;;;39.50;19.33;;;;;;;0.04;84.52;100955.52;4885886;58;1138287;-89
2021/01/15 01:56:26;;;;;;;34.27;17.10;;;;;;;-0.02;84.62;100961.77;4940809;58;1138441;-88
2021/01/15 02:01:32;;;;;;;25.00;13.90;;;;;;;0.03;84.85;100956.86;4807469;59;1140452;-89
2021/01/15 02:06:40;;;;;;;25.43;12.37;;;;;;;0.04;84.82;100952.92;4739400;60;1138552;-89
2021/01/15 02:12:31;;;;;;;27.32;13.15;;;;;;;-0.01;84.49;100960.02;4963664;59;1138822;-89
2021/01/15 02:17:41;;;;;;;25.05;11.68;;;;;;;-0.09;84.18;100947.20;4872217;58;1140535;-87
2021/01/15 02:23:25;;;;;;;25.33;13.27;;;;;;;-0.17;83.99;100950.92;4699469;60;1142411;-87
2021/01/15 02:28:59;;;;;;;26.52;12.90;;;;;;;-0.23;84.22;100957.12;4719680;60;1140591;-88
2021/01/15 02:34:35;;;;;;;25.77;13.05;;;;;;;-0.31;84.09;100946.09;4867137;58;1140631;-88
2021/01/15 02:39:57;;;;;;;23.90;13.43;;;;;;;-0.32;83.97;100952.18;4888253;58;1140599;-88
2021/01/15 02:45:07;;;;;;;31.27;14.10;;;;;;;-0.38;83.88;100948.42;4871768;59;1140702;-88
2021/01/15 02:50:14;;;;;;;28.47;15.17;;;;;;;-0.41;83.92;100949.36;4925116;59;1138462;-88
2021/01/15 02:55:20;;;;;;;33.40;16.70;;;;;;;-0.34;84.30;100942.27;4889549;59;1140818;-88
2021/01/15 03:00:26;;;;;;;52.60;24.37;;;;;;;-0.28;84.07;100946.43;4997881;57;1140383;-88
2021/01/15 03:05:50;;;;;;;49.37;25.30;;;;;;;-0.36;83.64;100955.30;5048369;57;1140513;-88
2021/01/15 03:10:59;;;;;;;56.53;25.30;;;;;;;-0.36;83.96;100954.44;4910863;58;1140496;-88
2021/01/15 03:16:06;;;;;;;54.33;24.87;;;;;;;-0.32;84.18;100953.92;4929271;57;1140541;-88
2021/01/15 03:21:12;;;;;;;63.30;25.10;;;;;;;-0.28;84.14;100962.02;5018308;57;1140882;-88
2021/01/15 03:26:18;;;;;;;118.03;37.57;;;;;;;-0.24;84.24;100966.26;4995583;57;1140498;-88
2021/01/15 03:31:24;;;;;;;141.40;40.17;;;;;;;-0.22;84.03;100966.63;4952801;58;1142476;-88
2021/01/15 03:36:32;;;;;;;86.93;26.43;;;;;;;-0.17;84.02;100965.22;4922244;58;1142751;-88
2021/01/15 03:41:38;;;;;;;72.35;25.88;;;;;;;-0.20;83.52;100964.84;4906103;58;1140590;-88
2021/01/15 03:46:43;;;;;;;53.57;19.77;;;;;;;-0.30;82.99;100971.61;4859664;59;1140975;-88
2021/01/15 03:51:49;;;;;;;30.82;13.65;;;;;;;-0.36;83.09;100972.63;4887009;58;1140445;-88
2021/01/15 03:56:55;;;;;;;22.30;11.63;;;;;;;-0.42;82.99;100974.08;4795064;59;1140939;-88
2021/01/15 04:02:00;;;;;;;17.33;9.63;;;;;;;-0.42;83.02;100976.23;4766884;60;1140548;-87
2021/01/15 04:07:06;;;;;;;23.10;11.20;;;;;;;-0.46;82.81;100979.79;4856175;59;1138423;-87
2021/01/15 04:12:15;;;;;;;19.60;10.10;;;;;;;-0.54;82.33;100971.34;4959769;59;1138367;-88
2021/01/15 04:17:23;;;;;;;24.00;11.13;;;;;;;-0.51;83.04;100976.47;4917751;59;1140642;-87
2021/01/15 04:22:38;;;;;;;24.77;10.53;;;;;;;-0.45;83.00;100975.45;4746476;60;1140831;-87
2021/01/15 04:27:47;;;;;;;22.13;10.45;;;;;;;-0.54;82.26;100971.34;4909347;60;1138412;-87
2021/01/15 04:32:54;;;;;;;23.43;11.47;;;;;;;-0.55;82.59;100984.38;4846376;59;1140651;-88
2021/01/15 04:38:00;;;;;;;21.93;11.43;;;;;;;-0.50;82.59;100970.83;4870360;59;1140453;-88
2021/01/15 04:43:07;;;;;;;24.27;11.83;;;;;;;-0.50;82.46;100970.39;4880784;59;1140503;-87
2021/01/15 04:48:16;;;;;;;28.97;13.47;;;;;;;-0.50;82.48;100970.83;4849700;60;1140349;-87
2021/01/15 04:53:25;;;;;;;31.70;14.73;;;;;;;-0.57;82.13;100983.11;4939879;59;1138377;-87
2021/01/15 04:58:37;;;;;;;30.43;15.53;;;;;;;-0.56;82.63;100964.03;4881106;59;1140660;-87
2021/01/15 05:03:45;;;;;;;35.73;15.95;;;;;;;-0.52;81.51;100962.22;4892254;59;1140511;-88
2021/01/15 05:08:54;;;;;;;40.30;16.10;;;;;;;-0.54;81.82;100964.85;5001543;58;1140467;-88
2021/01/15 05:14:00;;;;;;;29.67;14.77;;;;;;;-0.55;81.34;100967.48;4940579;58;1140532;-87
2021/01/15 05:19:09;;;;;;;27.93;14.70;;;;;;;-0.58;81.53;100964.52;4961771;58;1140261;-87
2021/01/15 05:24:14;;;;;;;263.53;91.63;;;;;;;-0.55;81.83;100964.44;4951301;58;1140617;-87
2021/01/15 05:29:20;;;;;;;389.17;144.05;;;;;;;-0.55;82.09;100967.48;5007971;58;1140506;-87
2021/01/15 05:34:29;;;;;;;40.10;18.00;;;;;;;-0.50;82.35;100976.03;4936528;58;1144649;-87
2021/01/15 05:39:35;;;;;;;18.27;9.60;;;;;;;-0.60;81.65;100979.72;4988091;58;1140688;-88
2021/01/15 05:44:41;;;;;;;20.67;10.10;;;;;;;-0.80;81.52;100961.60;4919681;57;1138517;-87
2021/01/15 05:49:58;;;;;;;20.50;9.00;;;;;;;-0.82;81.87;100969.02;4957801;59;1140347;-87
2021/01/15 05:55:13;;;;;;;25.27;10.83;;;;;;;-0.84;81.92;100963.00;5014293;59;21120;-87
2021/01/15 06:00:32;;;;;;;96.87;46.48;;;;;;;-0.90;81.81;100967.88;4962975;59;1136356;-87
2021/01/15 06:05:38;;;;;;;29.45;17.85;;;;;;;-0.85;82.09;100970.38;4947223;57;1140601;-87
2021/01/15 06:10:49;;;;;;;19.30;11.87;;;;;;;-0.78;82.26;100971.95;5003067;58;1140491;-87
2021/01/15 06:15:54;;;;;;;19.63;8.50;;;;;;;-0.73;81.85;100977.88;5039569;59;21170;-87
2021/01/15 06:21:10;;;;;;;21.23;10.47;;;;;;;-0.87;81.56;100966.52;5042961;59;21194;-87
2021/01/15 06:26:19;;;;;;;15.87;7.67;;;;;;;-0.93;81.58;100973.62;5048508;58;21689;-87
2021/01/15 06:31:24;;;;;;;30.37;12.50;;;;;;;-0.96;81.68;100985.36;5028280;59;21218;-87
2021/01/15 06:36:55;;;;;;;27.87;14.90;;;;;;;-1.02;81.70;100990.68;5044663;59;21273;-87
2021/01/15 06:42:03;;;;;;;29.93;14.53;;;;;;;-1.04;81.96;100997.64;5044653;58;21321;-87
2021/01/15 06:47:12;;;;;;;29.77;14.83;;;;;;;-1.00;82.21;101004.04;5017468;59;21165;-87
2021/01/15 06:52:22;;;;;;;30.33;13.63;;;;;;;-1.01;82.03;101006.66;5043930;58;21592;-87
2021/01/15 06:57:35;;;;;;;27.87;12.43;;;;;;;-1.07;81.87;101003.31;5043882;58;21201;-87
2021/01/15 07:03:32;;;;;;;28.35;13.20;;;;;;;-1.07;82.12;101008.50;5040956;58;21293;-88
2021/01/15 07:08:38;;;;;;;24.30;12.37;;;;;;;-1.06;82.11;101010.21;4989333;59;21151;-87
2021/01/15 07:13:46;;;;;;;35.33;21.10;;;;;;;-1.06;82.21;101021.89;4986505;59;21151;-86
2021/01/15 07:18:56;;;;;;;23.07;13.17;;;;;;;-1.08;82.09;101028.03;5018664;58;21189;-86
2021/01/15 07:24:10;;;;;;;30.00;14.93;;;;;;;-1.15;82.02;101025.14;4951341;60;21304;-89
2021/01/15 07:29:18;;;;;;;19.97;11.00;;;;;;;-1.17;82.03;101033.40;4956562;59;21169;-89
2021/01/15 07:34:28;;;;;;;20.80;12.83;;;;;;;-1.21;82.23;101039.09;5008373;59;21146;-89
2021/01/15 07:39:34;;;;;;;24.97;12.20;;;;;;;-1.23;82.29;101042.63;5030946;58;21199;-89
2021/01/15 07:44:40;;;;;;;22.47;10.40;;;;;;;-1.24;82.49;101038.33;5031066;59;21154;-89
2021/01/15 07:49:47;;;;;;;23.50;11.73;;;;;;;-1.22;82.60;101032.66;5019726;59;21185;-89
2021/01/15 07:55:01;;;;;;;20.37;11.50;;;;;;;-1.21;82.55;101040.39;5004051;58;21524;-89
2021/01/15 08:00:25;;;;;;;24.53;13.60;;;;;;;-1.18;82.82;101032.98;4985708;59;21185;-89
2021/01/15 08:05:30;;;;;;;;;;;;;;;-1.07;82.90;101025.84;4984685;59;21496;-89
2021/01/15 08:10:50;;;;;;;64.53;26.57;;;;;;;-1.07;82.69;101040.95;4965455;59;20130;-89
2021/01/15 08:15:57;;;;;;;509.77;223.07;;;;;;;-1.13;82.66;101046.29;4929036;60;21412;-88
2021/01/15 08:21:04;;;;;;;42.07;19.33;;;;;;;-1.16;82.78;101039.86;4977895;59;21107;-88
2021/01/15 08:26:23;;;;;;;52.63;25.40;;;;;;;-1.17;83.04;101037.29;5026806;59;21443;-88
2021/01/15 08:31:28;;;;;;;40.83;19.50;;;;;;;-1.16;83.05;101044.19;4986842;59;1136544;-88
2021/01/15 08:36:38;;;;;;;78.40;36.57;;;;;;;-1.14;83.36;101047.17;4861660;59;1140779;-88
2021/01/15 08:41:44;;;;;;;44.20;21.83;;;;;;;-1.09;83.52;101047.94;4925954;59;1140423;-88
2021/01/15 08:46:49;;;;;;;154.07;64.53;;;;;;;-1.01;83.66;101045.61;4931484;60;21170;-88
2021/01/15 08:51:57;;;;;;;61.17;30.30;;;;;;;-0.96;83.68;101047.67;4961998;59;21575;-88
2021/01/15 08:57:06;;;;;;;42.33;18.37;;;;;;;-0.93;83.71;101061.44;4918486;59;1136309;-88
2021/01/15 09:02:12;;;;;;;60.53;27.47;;;;;;;-0.94;83.83;101058.44;4801609;60;1140418;-89
2021/01/15 09:07:18;;;;;;;49.67;21.50;;;;;;;-0.92;84.06;101064.89;4709902;61;1140690;-88
2021/01/15 09:12:26;;;;;;;48.27;21.50;;;;;;;-0.86;84.21;101068.19;4937157;58;1140516;-88
2021/01/15 09:17:32;;;;;;;41.70;18.23;;;;;;;-0.81;84.23;101072.85;4902346;59;1140544;-88
2021/01/15 09:22:38;;;;;;;32.17;16.00;;;;;;;-0.72;84.38;101078.27;4923550;59;21179;-88
2021/01/15 09:27:45;;;;;;;54.37;21.93;;;;;;;-0.71;84.42;101078.24;4900258;59;1136554;-87
2021/01/15 09:32:50;;;;;;;43.28;19.23;;;;;;;-0.65;84.45;101085.05;4883831;59;1140556;-87
2021/01/15 09:37:56;;;;;;;35.92;17.60;;;;;;;-0.56;84.67;101088.73;4946525;59;1140692;-87
2021/01/15 09:43:01;;;;;;;35.07;13.97;;;;;;;-0.50;84.57;101099.44;4884324;59;1140705;-88
2021/01/15 09:48:11;;;;;;;33.70;16.47;;;;;;;-0.51;84.33;101108.97;4877948;59;1141505;-87
2021/01/15 09:53:16;;;;;;;29.43;14.93;;;;;;;-0.50;84.46;101098.14;4875578;59;1140576;-87
2021/01/15 09:58:22;;;;;;;25.43;14.20;;;;;;;-0.44;84.48;101103.17;4897485;59;1140518;-88
2021/01/15 10:03:34;;;;;;;29.33;14.67;;;;;;;-0.38;84.49;101103.90;4904495;59;1140599;-88
2021/01/15 10:08:39;;;;;;;28.00;13.23;;;;;;;-0.39;84.35;101098.29;4851633;59;1140494;-91
2021/01/15 10:13:45;;;;;;;24.47;14.07;;;;;;;-0.36;84.48;101090.43;4860519;60;1140455;-88
2021/01/15 10:18:51;;;;;;;19.03;8.60;;;;;;;-0.34;84.35;101092.14;4980286;59;21181;-87
2021/01/15 10:23:57;;;;;;;32.38;12.88;;;;;;;-0.34;84.24;101084.34;4763538;60;1134798;-88
2021/01/15 10:29:06;;;;;;;35.50;18.43;;;;;;;-0.24;84.58;101089.72;4909772;59;1141108;-88
2021/01/15 10:34:13;;;;;;;19.10;9.00;;;;;;;-0.17;84.30;101090.84;4795523;59;1140893;-87
2021/01/15 10:39:20;;;;;;;44.73;19.53;;;;;;;-0.18;83.54;101098.23;4875413;59;1138425;-89
2021/01/15 10:44:29;;;;;;;44.23;17.67;;;;;;;-0.18;83.94;101094.78;4930351;59;1140392;-88
2021/01/15 10:49:34;;;;;;;16.00;6.50;;;;;;;-0.07;84.14;101103.16;4855592;59;1140838;-89
2021/01/15 10:54:41;;;;;;;21.27;10.57;;;;;;;-0.02;83.33;101094.37;4893584;59;1138539;-88
2021/01/15 10:59:47;;;;;;;28.70;13.27;;;;;;;0.06;83.59;101100.66;4939773;59;1140759;-88
2021/01/15 11:04:53;;;;;;;18.67;9.05;;;;;;;0.05;83.16;101096.80;4860190;59;1138539;-86
2021/01/15 11:09:58;;;;;;;28.07;12.03;;;;;;;0.03;83.08;101094.68;4951231;58;1136775;-88
2021/01/15 11:15:06;;;;;;;18.77;7.83;;;;;;;0.05;82.97;101096.80;4954972;58;1138526;-88
2021/01/15 11:20:12;;;;;;;16.60;7.73;;;;;;;0.06;82.52;101092.86;4955546;58;1136542;-89
2021/01/15 11:25:18;;;;;;;13.47;7.43;;;;;;;0.03;82.54;101096.83;4976864;58;1136356;-89
2021/01/15 11:30:24;;;;;;;19.60;8.40;;;;;;;-0.03;82.54;101095.26;4948150;57;1136643;-88
2021/01/15 11:35:33;;;;;;;14.63;7.60;;;;;;;-0.02;82.40;101102.62;4973388;58;1138321;-90
2021/01/15 11:40:38;;;;;;;22.47;10.80;;;;;;;-0.04;82.33;101102.65;4946570;58;1138385;-88
2021/01/15 11:45:46;;;;;;;19.20;8.73;;;;;;;-0.05;82.68;101107.44;4948717;58;1140581;-89
2021/01/15 11:50:51;;;;;;;14.60;7.47;;;;;;;-0.09;82.23;101104.50;4969151;58;1138406;-89
2021/01/15 11:56:01;;;;;;;10.33;4.77;;;;;;;-0.14;82.55;101101.59;4898206;58;1138740;-89
2021/01/15 12:01:07;;;;;;;11.10;5.40;;;;;;;-0.08;82.50;101103.61;4980628;59;1138948;-88
2021/01/15 12:06:16;;;;;;;17.00;7.53;;;;;;;-0.10;82.20;101098.89;4944325;58;1138464;-88
2021/01/15 12:11:22;;;;;;;12.10;5.37;;;;;;;-0.08;82.69;101097.55;4951514;58;1138876;-89
2021/01/15 12:16:30;;;;;;;11.27;6.57;;;;;;;-0.04;82.38;101099.19;4923604;57;1138453;-88
2021/01/15 12:21:39;;;;;;;15.93;7.20;;;;;;;-0.08;82.11;101097.55;4931293;58;1138434;-89
2021/01/15 12:26:45;;;;;;;18.63;8.23;;;;;;;-0.09;82.31;101096.70;4898849;59;1138648;-88
2021/01/15 12:31:54;;;;;;;170.80;43.70;;;;;;;-0.02;82.24;101090.91;4920495;58;1138244;-89
2021/01/15 12:37:02;;;;;;;55.93;28.17;;;;;;;0.28;82.71;101087.97;4921841;58;1142710;-89
2021/01/15 12:42:07;;;;;;;40.97;19.40;;;;;;;0.46;81.63;101092.66;4965658;59;1136372;-89
2021/01/15 12:47:13;;;;;;;65.57;21.73;;;;;;;0.33;81.32;101098.64;4944198;58;1138580;-90
2021/01/15 12:52:21;;;;;;;34.97;11.20;;;;;;;0.19;80.87;101098.16;4860005;58;1138719;-91
2021/01/15 12:57:28;;;;;;;23.20;9.53;;;;;;;0.03;80.79;101095.53;4874092;60;1138361;-91
2021/01/15 13:02:33;;;;;;;23.67;11.17;;;;;;;-0.04;80.91;101096.15;4928704;58;1136126;-89
2021/01/15 13:07:39;;;;;;;30.55;12.85;;;;;;;-0.05;81.37;101094.88;4929100;58;1140407;-89
2021/01/15 13:12:45;;;;;;;37.37;12.73;;;;;;;-0.05;81.02;101093.14;4929770;58;1140651;-90
2021/01/15 13:17:59;;;;;;;33.05;11.85;;;;;;;-0.13;81.08;101092.91;4930838;58;1140516;-90
2021/01/15 13:23:08;;;;;;;33.37;11.17;;;;;;;-0.18;80.92;101099.53;4926897;58;1140620;-90
2021/01/15 13:28:14;;;;;;;33.90;10.93;;;;;;;-0.29;80.30;101102.81;4934786;59;1140606;-90
2021/01/15 13:33:20;;;;;;;51.93;16.27;;;;;;;-0.38;80.73;101105.20;4931747;59;1140913;-90
2021/01/15 13:38:25;;;;;;;21.60;9.43;;;;;;;-0.39;80.63;101109.98;4925056;57;1141434;-89
2021/01/15 13:43:31;;;;;;;22.23;9.00;;;;;;;-0.43;81.02;101112.68;4957536;57;1138371;-88
2021/01/15 13:48:37;;;;;;;26.90;10.60;;;;;;;-0.44;80.86;101120.91;4944774;57;1138275;-88
2021/01/15 13:53:45;;;;;;;17.23;7.92;;;;;;;-0.47;80.84;101118.86;4995347;57;1140680;-90
2021/01/15 13:58:50;;;;;;;96.53;36.53;;;;;;;-0.47;80.54;101118.86;4965257;57;1138574;-89
2021/01/15 14:04:24;;;;;;;208.50;71.67;;;;;;;-0.48;81.10;101127.09;4994077;57;1140396;-89
2021/01/15 14:09:29;;;;;;;;;;;;;;;-0.47;80.63;101122.31;5025305;57;1143115;-89
2021/01/15 14:14:41;;;;;;;796.53;337.23;;;;;;;-0.48;81.21;101119.75;4918705;57;973694;-89
2021/01/15 14:19:57;;;;;;;681.37;277.57;;;;;;;-0.46;81.21;101125.29;4917436;58;1142565;-88
2021/01/15 14:25:03;;;;;;;480.67;233.20;;;;;;;-0.47;80.95;101131.41;4898588;59;1144789;-88
2021/01/15 14:30:44;;;;;;;406.57;166.15;;;;;;;-0.55;80.57;101137.20;4918611;58;1144635;-88
2021/01/15 14:36:20;;;;;;;494.62;210.48;;;;;;;-0.58;80.90;101138.56;4911763;57;1144729;-88
2021/01/15 14:41:26;;;;;;;369.07;213.43;;;;;;;-0.59;80.89;101145.94;4961299;58;1145572;-87
2021/01/15 14:46:40;;;;;;;229.17;108.53;;;;;;;-0.61;80.66;101146.41;4896486;57;1144660;-88
2021/01/15 14:51:46;;;;;;;110.40;49.97;;;;;;;-0.67;80.64;101151.77;4918903;57;1144637;-89
2021/01/15 14:56:52;;;;;;;97.97;46.17;;;;;;;-0.69;80.52;101160.47;4901874;58;1142751;-88
2021/01/15 15:01:57;;;;;;;181.20;91.53;;;;;;;-0.75;80.48;101157.10;4898618;57;1140499;-88
2021/01/15 15:07:03;;;;;;;532.97;223.90;;;;;;;-0.81;80.64;101159.84;4901511;59;1142717;-88
2021/01/15 15:12:17;;;;;;;807.03;393.37;;;;;;;-0.88;80.48;101171.23;4934777;58;1144844;-88
2021/01/15 15:17:23;;;;;;;415.88;236.00;;;;;;;-0.90;80.88;101175.59;4972087;57;1144658;-88
2021/01/15 15:22:48;;;;;;;46.83;26.77;;;;;;;-0.90;80.77;101170.41;4963963;57;1144561;-87
2021/01/15 15:27:56;;;;;;;30.55;10.63;;;;;;;-0.96;80.86;101171.84;4910908;58;1140507;-88
2021/01/15 15:33:05;;;;;;;863.33;387.77;;;;;;;-0.98;80.85;101170.16;4944016;57;1141033;-89
2021/01/15 15:38:13;;;;;;;497.33;225.17;;;;;;;-1.06;80.96;101172.44;4921798;58;1145037;-88
2021/01/15 15:43:22;;;;;;;232.90;100.73;;;;;;;-1.12;81.09;101169.98;4969938;57;1144816;-88
2021/01/15 15:48:28;;;;;;;34.80;17.13;;;;;;;-1.17;81.33;101176.14;4934793;58;1144673;-88
2021/01/15 15:53:34;;;;;;;15.13;6.87;;;;;;;-1.23;81.44;101177.57;4839450;59;1140724;-88
2021/01/15 15:58:46;;;;;;;29.00;12.63;;;;;;;-1.25;81.44;101172.41;4864403;59;1138282;-88
2021/01/15 16:03:50;;;;;;;47.47;18.93;;;;;;;-1.25;81.54;101190.57;4865842;58;1140818;-89
2021/01/15 16:08:57;;;;;;;25.53;9.83;;;;;;;-1.28;81.34;101189.77;4970255;57;1140714;-89
2021/01/15 16:14:07;;;;;;;36.00;14.57;;;;;;;-1.27;81.58;101195.37;4958090;57;1138401;-87
2021/01/15 16:19:15;;;;;;;39.33;16.93;;;;;;;-1.27;81.56;101204.02;5018315;57;1140373;-87
2021/01/15 16:24:21;;;;;;;69.43;25.57;;;;;;;-1.26;81.76;101212.21;4971224;57;1140638;-88
2021/01/15 16:29:27;;;;;;;110.03;35.30;;;;;;;-1.24;81.49;101207.86;5019723;57;1140422;-88
2021/01/15 16:34:35;;;;;;;58.73;17.90;;;;;;;-1.25;81.50;101210.03;4995415;57;1142606;-88
2021/01/15 16:39:40;;;;;;;60.57;22.90;;;;;;;-1.29;81.49;101215.30;5020650;56;1140315;-88
2021/01/15 16:44:47;;;;;;;59.38;20.82;;;;;;;-1.37;81.47;101212.82;4996813;57;1141317;-88
2021/01/15 16:50:32;;;;;;;40.05;15.40;;;;;;;-1.39;82.00;101201.64;4962330;57;1140783;-88
2021/01/15 16:55:21;;;;;;;53.97;19.13;;;;;;;-1.35;81.44;101212.36;4974398;57;1140898;-88
2021/01/15 17:00:27;;;;;;;44.42;17.60;;;;;;;-1.45;81.34;101219.90;4973932;57;1140410;-87
2021/01/15 17:05:33;;;;;;;28.20;13.83;;;;;;;-1.46;81.76;101220.78;5021141;57;1140805;-87
2021/01/15 17:10:39;;;;;;;19.30;9.90;;;;;;;-1.48;81.19;101227.73;5009650;56;1140364;-88
2021/01/15 17:15:45;;;;;;;32.77;16.00;;;;;;;-1.51;80.81;101227.77;4998557;57;1138273;-88
2021/01/15 17:20:52;;;;;;;197.23;108.50;;;;;;;-1.53;80.96;101230.39;4968673;57;1140790;-89
2021/01/15 17:25:58;;;;;;;63.05;28.38;;;;;;;-1.60;80.91;101232.69;4960457;57;1144708;-88
2021/01/15 17:31:05;;;;;;;75.57;35.07;;;;;;;-1.62;80.97;101249.14;4923063;57;1140744;-88
2021/01/15 17:36:11;;;;;;;66.70;32.97;;;;;;;-1.64;80.77;101249.16;4790111;59;1140766;-88
2021/01/15 17:41:17;;;;;;;23.53;10.40;;;;;;;-1.67;80.79;101245.75;4777901;60;1140824;-89
2021/01/15 17:46:23;;;;;;;29.93;17.70;;;;;;;-1.68;80.80;101242.30;4716596;60;1140735;-89
2021/01/15 17:51:34;;;;;;;26.20;12.20;;;;;;;-1.73;80.78;101245.44;4836396;59;1140617;-89
2021/01/15 17:56:40;;;;;;;18.23;9.20;;;;;;;-1.85;80.72;101249.52;4881131;58;1140707;-89
2021/01/15 18:02:19;;;;;;;32.73;19.20;;;;;;;-1.90;80.82;101246.98;4898924;58;1148297;-89
2021/01/15 18:07:34;;;;;;;21.70;8.20;;;;;;;-1.98;80.94;101251.84;4548499;63;1140390;-89
2021/01/15 18:12:40;;;;;;;28.20;10.97;;;;;;;-2.03;81.07;101253.23;4594506;64;21211;-90
2021/01/15 18:17:47;;;;;;;27.90;13.07;;;;;;;-2.05;81.14;101255.42;4561064;63;21194;-89
2021/01/15 18:22:53;;;;;;;49.67;25.37;;;;;;;-2.11;81.07;101262.83;4537655;64;1136542;-89
2021/01/15 18:27:59;;;;;;;39.90;22.57;;;;;;;-2.14;81.00;101262.43;4527701;62;1140638;-89
2021/01/15 18:33:05;;;;;;;61.73;34.00;;;;;;;-2.17;80.83;101274.16;4566848;64;1140511;-89
2021/01/15 18:38:11;;;;;;;48.27;23.77;;;;;;;-2.26;80.81;101270.38;4548287;64;1140578;-89
2021/01/15 18:43:18;;;;;;;28.42;15.78;;;;;;;-2.29;80.94;101279.47;4733267;58;1140507;-89
2021/01/15 18:48:23;;;;;;;431.93;187.53;;;;;;;-2.28;80.94;101274.72;4945872;58;1138434;-89
2021/01/15 18:53:29;;;;;;;433.57;188.67;;;;;;;-2.30;80.87;101281.67;5015299;59;21153;-89
2021/01/15 18:58:34;;;;;;;534.33;305.40;;;;;;;-2.37;80.83;101286.50;5019302;59;1140514;-89
2021/01/15 19:03:40;;;;;;;137.37;70.43;;;;;;;-2.39;80.96;101288.69;4939433;58;1144587;-89
2021/01/15 19:08:46;;;;;;;151.30;93.80;;;;;;;-2.42;80.93;101292.16;4959411;58;1142620;-89
2021/01/15 19:13:52;;;;;;;43.80;21.77;;;;;;;-2.44;80.92;101293.91;4929481;58;1142460;-87
2021/01/15 19:18:57;;;;;;;13.53;7.07;;;;;;;-2.40;80.99;101300.78;4922428;58;1140641;-87
2021/01/15 19:24:04;;;;;;;36.87;16.40;;;;;;;-2.38;80.86;101302.05;4991572;58;1138472;-87
2021/01/15 19:29:10;;;;;;;296.70;140.97;;;;;;;-2.43;80.71;101305.13;5051503;58;21674;-87
2021/01/15 19:40:47;;;;;;;33.33;13.70;;;;;;;-2.50;81.04;101307.81;5050636;59;21051;-86
2021/01/15 19:45:53;;;;;;;39.97;14.00;;;;;;;-2.58;81.00;101314.79;5051538;58;21122;-87
2021/01/15 19:50:59;;;;;;;49.97;18.67;;;;;;;-2.62;81.24;101313.57;5040062;58;21150;-87
2021/01/15 19:56:05;;;;;;;54.57;20.87;;;;;;;-2.58;81.32;101312.20;4934917;59;21277;-87
2021/01/15 20:01:11;;;;;;;46.03;16.93;;;;;;;-2.51;81.42;101315.59;4943746;58;21510;-86
2021/01/15 20:06:17;;;;;;;49.20;18.20;;;;;;;-2.45;81.21;101306.47;5022923;58;21301;-87
2021/01/15 20:11:23;;;;;;;46.67;14.63;;;;;;;-2.47;80.87;101317.28;5011320;59;21162;-86
2021/01/15 20:16:30;;;;;;;30.57;11.33;;;;;;;-2.49;80.85;101322.91;5012654;59;21167;-87
2021/01/15 20:21:44;;;;;;;38.00;15.57;;;;;;;-2.58;80.57;101325.58;5004430;59;21523;-87
2021/01/15 20:33:13;;;;;;;68.00;22.70;;;;;;;-2.78;80.84;101323.66;4965296;59;20380;-87
2021/01/15 20:38:18;;;;;;;62.50;22.37;;;;;;;-2.88;81.13;101321.15;4986950;59;21174;-87
2021/01/15 20:43:24;;;;;;;33.77;11.50;;;;;;;-2.88;81.20;101321.58;4960070;59;1136547;-87
2021/01/15 20:48:30;;;;;;;47.10;18.07;;;;;;;-2.96;81.14;101320.81;4904859;59;1140651;-86
2021/01/15 20:53:35;;;;;;;46.17;16.33;;;;;;;-3.04;81.26;101328.63;4923745;59;1140491;-86
2021/01/15 20:58:41;;;;;;;26.57;8.50;;;;;;;-3.08;81.38;101329.55;4937028;59;21170;-86
2021/01/15 21:03:46;;;;;;;31.87;13.23;;;;;;;-3.05;81.45;101332.52;4937364;59;21147;-86
2021/01/15 21:08:52;;;;;;;182.67;77.63;;;;;;;-3.07;81.38;101334.30;4969178;60;21173;-87
2021/01/15 21:13:57;;;;;;;27.63;10.87;;;;;;;-3.10;81.53;101331.73;4969622;60;21161;-86
2021/01/15 21:19:03;;;;;;;38.27;16.30;;;;;;;-3.12;81.57;101338.20;4970940;57;21169;-86
2021/01/15 21:24:10;;;;;;;31.80;10.17;;;;;;;-3.14;81.62;101333.91;5086550;58;21166;-86
2021/01/15 21:29:16;;;;;;;59.33;18.30;;;;;;;-3.19;81.60;101334.80;5086665;58;21164;-86
2021/01/15 21:34:24;;;;;;;64.70;24.13;;;;;;;-3.23;81.70;101334.42;5057779;58;21185;-86
2021/01/15 21:39:29;;;;;;;25.07;9.07;;;;;;;-3.19;81.78;101333.50;5068374;58;21227;-86
2021/01/15 21:44:35;;;;;;;41.65;16.12;;;;;;;-3.17;81.61;101335.22;5047760;58;1134279;-86
2021/01/15 21:49:41;;;;;;;31.40;10.73;;;;;;;-3.21;81.65;101332.66;4963884;58;1140646;-86
2021/01/15 21:54:46;;;;;;;32.88;11.60;;;;;;;-3.17;81.75;101328.32;5027930;58;1140339;-86
2021/01/15 21:59:52;;;;;;;39.80;13.37;;;;;;;-3.18;81.48;101331.77;5086799;58;21087;-86
2021/01/15 22:04:57;;;;;;;43.23;14.57;;;;;;;-3.16;81.58;101330.47;5087215;58;21169;-86
2021/01/15 22:10:07;;;;;;;59.27;19.37;;;;;;;-3.18;81.41;101331.77;5086544;58;21221;-86
2021/01/15 22:15:12;;;;;;;46.00;14.77;;;;;;;-3.20;81.51;101325.31;5087006;58;21170;-86
2021/01/15 22:20:18;;;;;;;52.10;16.60;;;;;;;-3.23;81.49;101335.72;4994191;59;21288;-86
2021/01/15 22:25:24;;;;;;;31.57;10.90;;;;;;;-3.27;81.56;101335.31;4814647;62;21209;-86
2021/01/15 22:30:29;;;;;;;33.20;11.03;;;;;;;-3.29;81.56;101335.75;4899172;60;21202;-86
2021/01/15 22:35:37;;;;;;;36.77;12.00;;;;;;;-3.32;81.57;101326.72;4901425;60;21190;-86
2021/01/15 22:40:43;;;;;;;31.67;11.83;;;;;;;-3.34;81.60;101330.19;4897570;60;21181;-86
2021/01/15 22:45:49;;;;;;;21.60;7.57;;;;;;;-3.39;81.67;101329.38;4814810;62;21130;-86
2021/01/15 22:50:58;;;;;;;30.20;9.90;;;;;;;-3.33;81.77;101327.59;4896840;60;21191;-86
2021/01/15 22:56:07;;;;;;;28.60;11.23;;;;;;;-3.34;81.71;101331.05;4896888;60;21174;-86
2021/01/15 23:01:13;;;;;;;13.77;5.47;;;;;;;-3.35;81.75;101325.88;4900205;60;21161;-86
2021/01/15 23:06:18;;;;;;;16.37;7.03;;;;;;;-3.40;82.10;101324.64;4899314;60;21169;-86
2021/01/15 23:11:24;;;;;;;20.43;7.30;;;;;;;-3.41;82.28;101320.34;4899528;60;21180;-86
2021/01/15 23:16:30;;;;;;;28.57;10.40;;;;;;;-3.37;82.45;101326.35;4894071;61;21284;-86